In Rescue
 
Open Full Screen Window  High Contrast Mode
Wind Gusting 00 knots
07
October 07, 2022 3:00 PM CDT
Weather Information
Wind Direction
  300 °
Wind Speed
  07 kt (8 mph)
Wind Gust
  00 kt (0 mph)
Altimeter
30.48 in
Visibility
10 SM
Temperature
08° C
46° F
Dewpoint
-03° C
27° F
Humidity
46%
1hr Rain Fall
00.00 in.
24hr Rain Fall
00.00 in.
Sky Condition
Overcast @ 4,800 ft
Few @ 4,000 ft
VFR

METAR KCFE 072000Z AUTO 30007KT 10SM FEW040 OVC048 08/M03 A3048 RMK AO2

FAA Disclaimer: The data displayed is for advisory purposes only and is not to be used for flight planning or operations.